Time;durP1;ratioP1;P1;durP2;ratioP2;P2;SDS_P1;SDS_P2;PMS_P1;PMS_P2;Temp;Humidity;BMP_temperature;BMP_pressure;BME280_temperature;BME280_humidity;BME280_pressure;Samples;Min_cycle;Max_cycle;Signal;HPM_P1;HPM_P2
2022/01/29 00:00:47;;;;;;;63.50;43.90;;;6.70;99.90;;;;;;5088308;28;20036;-53
2022/01/29 00:03:13;;;;;;;60.35;44.05;;;6.70;99.90;;;;;;5085891;28;20048;-50
2022/01/29 00:05:38;;;;;;;59.58;43.13;;;6.70;99.90;;;;;;5084693;28;20036;-53
2022/01/29 00:08:05;;;;;;;63.25;43.30;;;6.70;99.90;;;;;;5088785;28;20427;-50
2022/01/29 00:10:31;;;;;;;66.15;44.55;;;6.70;99.90;;;;;;5090658;28;20037;-52
2022/01/29 00:12:58;;;;;;;60.13;42.90;;;6.80;99.90;;;;;;5087426;28;20044;-53
2022/01/29 00:15:23;;;;;;;57.67;42.95;;;6.80;99.90;;;;;;5088061;28;20037;-56
2022/01/29 00:17:49;;;;;;;60.05;41.92;;;6.80;99.90;;;;;;5088429;28;20039;-50
2022/01/29 00:20:14;;;;;;;59.22;42.78;;;6.80;99.90;;;;;;5088244;28;20044;-52
2022/01/29 00:22:41;;;;;;;52.85;41.05;;;6.80;99.90;;;;;;5089344;28;20080;-49
2022/01/29 00:25:08;;;;;;;61.88;42.28;;;6.80;99.90;;;;;;5085208;28;20056;-51
2022/01/29 00:27:35;;;;;;;61.13;42.50;;;6.80;99.90;;;;;;5101809;28;20127;-51
2022/01/29 00:30:07;;;;;;;64.60;42.00;;;6.80;99.90;;;;;;5089217;28;20072;-51
2022/01/29 00:32:33;;;;;;;53.75;37.97;;;6.80;99.90;;;;;;5086744;28;20092;-50
2022/01/29 00:34:58;;;;;;;53.58;39.88;;;6.90;99.90;;;;;;5089810;28;20044;-49
2022/01/29 00:37:24;;;;;;;58.05;42.15;;;6.80;99.90;;;;;;5088829;28;20036;-49
2022/01/29 00:39:49;;;;;;;56.05;40.63;;;6.90;99.90;;;;;;5088415;28;20090;-50
2022/01/29 00:42:15;;;;;;;59.50;41.08;;;6.80;99.90;;;;;;5090301;28;20064;-50
2022/01/29 00:44:41;;;;;;;62.40;42.70;;;6.80;99.90;;;;;;5091012;28;20033;-49
2022/01/29 00:47:06;;;;;;;53.88;40.22;;;6.80;99.90;;;;;;5092884;28;20040;-49
2022/01/29 00:49:32;;;;;;;57.17;42.55;;;6.80;99.90;;;;;;5091713;28;20092;-51
2022/01/29 00:51:58;;;;;;;57.45;42.22;;;6.80;99.90;;;;;;5090709;28;20048;-49
2022/01/29 00:54:23;;;;;;;60.20;43.63;;;6.80;99.90;;;;;;5091955;28;20059;-53
2022/01/29 00:56:49;;;;;;;63.47;42.47;;;6.80;99.90;;;;;;5108100;28;20033;-51
2022/01/29 00:59:14;;;;;;;57.85;42.65;;;6.70;99.90;;;;;;5093787;28;20040;-52
2022/01/29 01:01:40;;;;;;;56.15;41.28;;;6.70;99.90;;;;;;5094377;28;20059;-54
2022/01/29 01:04:06;;;;;;;61.03;42.92;;;6.70;99.90;;;;;;5094369;28;20792;-53
2022/01/29 01:06:31;;;;;;;62.45;44.05;;;6.70;99.90;;;;;;5095054;28;20039;-53
2022/01/29 01:08:57;;;;;;;61.63;44.00;;;6.70;99.90;;;;;;5095544;28;20025;-52
2022/01/29 01:11:22;;;;;;;60.55;43.92;;;6.70;99.90;;;;;;5092165;28;20074;-51
2022/01/29 01:13:48;;;;;;;66.40;45.42;;;6.70;99.90;;;;;;5093853;28;20040;-51
2022/01/29 01:16:13;;;;;;;62.13;43.78;;;6.60;99.90;;;;;;5093345;28;20037;-52
2022/01/29 01:18:39;;;;;;;63.78;43.97;;;6.60;99.90;;;;;;5092169;28;20032;-51
2022/01/29 01:21:04;;;;;;;69.78;45.10;;;6.60;99.90;;;;;;5091709;28;20032;-51
2022/01/29 01:23:30;;;;;;;68.00;44.10;;;6.60;99.90;;;;;;5089968;28;20103;-52
2022/01/29 01:25:56;;;;;;;67.95;46.47;;;6.60;99.90;;;;;;5089956;28;20048;-50
2022/01/29 01:28:21;;;;;;;67.80;45.00;;;6.60;99.90;;;;;;5088097;28;20051;-53
2022/01/29 01:30:47;;;;;;;62.78;43.20;;;6.60;99.90;;;;;;5092341;28;20094;-50
2022/01/29 01:33:12;;;;;;;69.63;44.95;;;6.60;99.90;;;;;;5091336;28;20036;-53
2022/01/29 01:35:44;;;;;;;62.17;40.70;;;6.60;99.90;;;;;;5092124;28;20036;-51
2022/01/29 01:40:41;;;;;;;66.72;42.53;;;6.60;99.90;;;;;;5092106;28;20024;-53
2022/01/29 01:43:06;;;;;;;68.88;43.90;;;6.60;99.90;;;;;;5094004;28;20055;-51
2022/01/29 01:45:32;;;;;;;60.10;41.88;;;6.60;99.90;;;;;;5094241;28;20060;-49
2022/01/29 01:47:58;;;;;;;60.90;42.05;;;6.60;99.90;;;;;;5093573;28;20037;-52
2022/01/29 01:50:24;;;;;;;61.55;41.40;;;6.60;99.90;;;;;;5092745;28;20044;-52
2022/01/29 01:52:50;;;;;;;63.22;41.53;;;6.60;99.90;;;;;;5091802;28;20044;-51
2022/01/29 01:55:17;;;;;;;59.70;41.33;;;6.60;99.90;;;;;;5092354;28;20122;-51
2022/01/29 01:57:43;;;;;;;56.40;39.42;;;6.70;99.90;;;;;;5091337;28;20100;-56
2022/01/29 02:00:10;;;;;;;60.28;40.20;;;6.70;99.90;;;;;;5089096;28;20027;-51
2022/01/29 02:02:36;;;;;;;59.60;39.70;;;6.60;99.90;;;;;;5090392;28;20036;-50
2022/01/29 02:05:02;;;;;;;52.78;37.63;;;6.60;99.90;;;;;;5089570;28;20118;-49
2022/01/29 02:07:29;;;;;;;51.60;36.78;;;6.70;99.90;;;;;;5087791;28;20474;-49
2022/01/29 02:09:55;;;;;;;58.90;38.03;;;6.70;99.90;;;;;;5089163;28;20036;-48
2022/01/29 02:12:23;;;;;;;52.40;35.95;;;6.70;99.90;;;;;;5091611;28;20032;-52
2022/01/29 02:14:49;;;;;;;52.05;35.70;;;6.70;99.90;;;;;;5092419;28;20048;-51
2022/01/29 02:17:16;;;;;;;52.92;35.47;;;6.70;99.90;;;;;;5092749;28;20044;-53
2022/01/29 02:19:41;;;;;;;49.42;35.17;;;6.70;99.90;;;;;;5091560;28;20059;-53
2022/01/29 02:22:07;;;;;;;52.13;35.45;;;;;;;;;;5092867;28;20048;-52
2022/01/29 02:24:33;;;;;;;53.47;35.50;;;6.70;99.90;;;;;;5090964;28;20063;-50
2022/01/29 02:26:59;;;;;;;49.95;34.88;;;6.70;99.90;;;;;;5090425;28;20049;-49
2022/01/29 02:29:25;;;;;;;51.50;35.65;;;6.70;99.90;;;;;;5092798;28;20027;-52
2022/01/29 02:31:54;;;;;;;54.40;36.38;;;6.70;99.90;;;;;;5090906;28;20056;-53
2022/01/29 02:34:20;;;;;;;53.35;35.58;;;6.80;99.90;;;;;;5094456;28;20037;-50
2022/01/29 02:36:46;;;;;;;58.15;35.75;;;6.80;99.90;;;;;;5108623;28;20048;-51
2022/01/29 02:39:13;;;;;;;55.75;36.90;;;6.80;99.90;;;;;;5090883;28;20131;-51
2022/01/29 02:41:43;;;;;;;49.95;35.30;;;6.80;99.90;;;;;;5092479;28;20044;-53
2022/01/29 02:44:09;;;;;;;54.85;37.38;;;6.80;99.90;;;;;;5093217;28;20100;-50
2022/01/29 02:49:07;;;;;;;53.80;36.20;;;6.80;99.90;;;;;;5090791;28;20074;-52
2022/01/29 02:51:32;;;;;;;55.33;35.47;;;6.80;99.90;;;;;;5086234;22;20077;-53
2022/01/29 02:53:58;;;;;;;57.70;36.58;;;6.80;99.90;;;;;;5052284;28;20214;-55
2022/01/29 02:56:23;;;;;;;51.03;34.88;;;6.80;99.90;;;;;;5055393;28;20052;-55
2022/01/29 02:58:49;;;;;;;56.00;35.95;;;6.80;99.90;;;;;;5054693;28;20087;-53
2022/01/29 03:01:15;;;;;;;55.10;34.35;;;6.80;99.90;;;;;;5050101;28;20053;-52
2022/01/29 03:03:40;;;;;;;53.20;34.92;;;6.90;99.90;;;;;;5031568;28;20489;-55
2022/01/29 03:06:10;;;;;;;53.20;34.60;;;6.90;99.90;;;;;;5055328;28;20077;-54
2022/01/29 03:08:38;;;;;;;52.70;35.53;;;6.90;99.90;;;;;;5053673;28;20051;-55
2022/01/29 03:11:05;;;;;;;50.10;34.08;;;6.90;99.90;;;;;;5049361;28;20044;-55
2022/01/29 03:13:31;;;;;;;50.92;34.90;;;6.90;99.90;;;;;;5054190;28;20044;-54
2022/01/29 03:15:56;;;;;;;56.90;33.35;;;6.90;99.90;;;;;;5046229;28;20033;-53
2022/01/29 03:18:22;;;;;;;49.45;33.40;;;6.90;99.90;;;;;;5053336;28;20086;-55
2022/01/29 03:20:47;;;;;;;48.53;31.95;;;7.00;99.90;;;;;;5057227;28;20064;-54
2022/01/29 03:23:13;;;;;;;49.45;33.42;;;7.00;99.90;;;;;;5053990;28;20123;-55
2022/01/29 03:25:39;;;;;;;51.97;32.30;;;7.00;99.90;;;;;;5049602;28;20102;-54
2022/01/29 03:28:05;;;;;;;46.78;30.98;;;7.00;99.90;;;;;;5050401;28;20133;-52
2022/01/29 03:30:31;;;;;;;46.40;31.65;;;7.00;99.90;;;;;;5051332;28;20033;-54
2022/01/29 03:32:57;;;;;;;44.13;31.73;;;7.00;99.90;;;;;;5052579;28;20037;-54
2022/01/29 03:35:22;;;;;;;42.67;31.70;;;7.00;99.90;;;;;;5046002;28;20037;-54
2022/01/29 03:37:48;;;;;;;44.95;31.70;;;7.00;99.90;;;;;;5045905;28;20098;-51
2022/01/29 03:40:14;;;;;;;43.85;30.67;;;7.00;99.90;;;;;;5050667;28;20124;-55
2022/01/29 03:42:45;;;;;;;44.95;31.08;;;7.10;99.90;;;;;;5049510;28;20037;-54
2022/01/29 03:45:13;;;;;;;47.85;30.90;;;7.10;99.90;;;;;;5054531;28;20055;-54
2022/01/29 03:47:39;;;;;;;46.17;30.95;;;7.10;99.90;;;;;;5045755;28;20114;-55
2022/01/29 03:50:05;;;;;;;47.03;30.38;;;7.10;99.90;;;;;;5052935;28;20049;-53
2022/01/29 03:52:31;;;;;;;45.50;30.67;;;7.10;99.90;;;;;;5047981;28;20118;-55
2022/01/29 03:54:56;;;;;;;48.17;31.25;;;7.10;99.90;;;;;;5047292;28;20045;-52
2022/01/29 03:57:22;;;;;;;47.78;31.67;;;7.10;99.90;;;;;;5044840;28;20044;-53
2022/01/29 03:59:47;;;;;;;48.25;32.33;;;7.10;99.90;;;;;;5043321;28;20044;-53
2022/01/29 04:02:13;;;;;;;47.63;31.85;;;7.20;99.90;;;;;;5045052;28;20420;-55
2022/01/29 04:04:39;;;;;;;48.97;31.50;;;7.10;99.90;;;;;;5048162;28;20052;-54
2022/01/29 04:07:10;;;;;;;53.47;32.15;;;7.20;99.90;;;;;;5047526;28;20114;-54
2022/01/29 04:09:35;;;;;;;49.65;32.13;;;7.20;99.90;;;;;;5048712;28;20091;-51
2022/01/29 04:12:02;;;;;;;45.25;31.85;;;7.20;99.90;;;;;;5045088;28;20045;-54
2022/01/29 04:14:34;;;;;;;48.22;31.70;;;7.20;99.90;;;;;;5047518;28;20044;-54
2022/01/29 04:16:59;;;;;;;54.40;32.97;;;7.20;99.90;;;;;;5045730;28;20114;-53
2022/01/29 04:19:25;;;;;;;49.88;32.60;;;7.20;99.90;;;;;;5046714;28;20053;-54
2022/01/29 04:21:51;;;;;;;52.00;32.40;;;7.20;99.90;;;;;;5045989;28;20454;-54
2022/01/29 04:24:17;;;;;;;51.45;31.95;;;;;;;;;;5028110;28;20040;-54
2022/01/29 04:26:44;;;;;;;51.40;32.25;;;7.20;99.90;;;;;;5045578;28;20134;-55
2022/01/29 04:29:10;;;;;;;52.22;32.70;;;7.20;99.90;;;;;;5045400;28;20041;-54
2022/01/29 04:31:41;;;;;;;53.55;33.35;;;7.30;99.90;;;;;;5044733;28;20029;-55
2022/01/29 04:34:07;;;;;;;53.83;33.33;;;7.30;99.90;;;;;;5030596;28;20532;-53
2022/01/29 04:36:32;;;;;;;51.47;32.63;;;7.30;99.90;;;;;;5048419;28;20092;-53
2022/01/29 04:38:58;;;;;;;55.65;33.70;;;7.30;99.90;;;;;;5049293;28;20069;-54
2022/01/29 04:41:24;;;;;;;54.80;34.03;;;7.30;99.90;;;;;;5048452;28;20354;-55
2022/01/29 04:43:49;;;;;;;55.92;34.92;;;7.30;99.90;;;;;;5048490;28;20370;-54
2022/01/29 04:46:15;;;;;;;51.88;33.15;;;7.30;99.90;;;;;;5047255;28;20516;-53
2022/01/29 04:48:40;;;;;;;52.20;33.50;;;7.30;99.90;;;;;;5045953;28;20064;-54
2022/01/29 04:51:06;;;;;;;50.80;33.55;;;7.40;99.90;;;;;;5042644;28;20140;-53
2022/01/29 04:53:32;;;;;;;53.90;33.47;;;7.40;99.90;;;;;;5042178;28;20036;-54
2022/01/29 04:55:57;;;;;;;55.10;34.63;;;7.40;99.90;;;;;;5045884;28;20076;-54
2022/01/29 04:58:23;;;;;;;52.53;32.92;;;7.40;99.90;;;;;;5043544;28;20048;-55
2022/01/29 05:00:48;;;;;;;54.70;33.67;;;7.40;99.90;;;;;;5045908;28;20036;-54
2022/01/29 05:03:14;;;;;;;52.40;34.40;;;7.30;99.90;;;;;;5045247;28;20041;-54
2022/01/29 05:05:42;;;;;;;56.95;34.63;;;7.40;99.90;;;;;;5048022;28;20587;-55
2022/01/29 05:08:08;;;;;;;51.22;33.45;;;7.40;99.90;;;;;;5046633;28;20095;-55
2022/01/29 05:10:35;;;;;;;57.20;34.70;;;7.40;99.90;;;;;;5047144;28;20045;-54
2022/01/29 05:13:13;;;;;;;52.10;34.75;;;7.40;99.90;;;;;;5048589;28;20063;-54
2022/01/29 05:16:06;;;;;;;56.25;34.17;;;7.30;99.90;;;;;;5047998;28;20041;-54
2022/01/29 05:27:01;;;;;;;47.40;32.20;;;7.40;99.90;;;;;;5043927;28;20119;-54
2022/01/29 05:29:30;;;;;;;55.03;32.33;;;7.40;99.90;;;;;;5026871;28;20045;-54
2022/01/29 05:31:57;;;;;;;46.95;30.58;;;7.50;99.90;;;;;;5047179;28;20107;-54
2022/01/29 05:34:23;;;;;;;48.05;32.08;;;7.50;99.90;;;;;;5044950;28;20045;-54
2022/01/29 05:36:49;;;;;;;48.53;31.58;;;7.50;99.90;;;;;;5046893;28;20102;-54
2022/01/29 05:39:16;;;;;;;54.47;31.48;;;7.50;99.90;;;;;;5045336;28;20109;-54
2022/01/29 05:41:41;;;;;;;48.35;31.52;;;7.50;99.90;;;;;;5047658;28;20041;-54
2022/01/29 05:44:07;;;;;;;51.47;29.50;;;7.60;99.90;;;;;;5047183;28;20056;-54
2022/01/29 05:46:33;;;;;;;40.70;29.10;;;7.60;99.90;;;;;;5048826;28;20037;-55
2022/01/29 05:48:59;;;;;;;48.30;29.60;;;7.60;99.90;;;;;;5050169;28;20048;-55
2022/01/29 05:51:29;;;;;;;42.05;29.40;;;7.60;99.90;;;;;;5049081;28;20700;-54
2022/01/29 05:53:55;;;;;;;45.60;30.08;;;7.70;99.90;;;;;;5050801;28;20064;-55
2022/01/29 05:56:21;;;;;;;44.03;28.40;;;7.70;99.90;;;;;;5049730;28;20055;-55
2022/01/29 05:58:46;;;;;;;44.08;27.55;;;7.70;99.90;;;;;;5031248;28;20049;-52
2022/01/29 06:01:12;;;;;;;41.40;28.05;;;7.70;99.90;;;;;;5048146;28;20040;-54
2022/01/29 06:03:37;;;;;;;43.72;28.42;;;7.70;99.90;;;;;;5047529;28;20344;-55
2022/01/29 06:06:03;;;;;;;37.67;26.10;;;7.70;99.90;;;;;;5047863;28;20041;-55
2022/01/29 06:08:29;;;;;;;38.40;26.70;;;7.80;99.90;;;;;;5031389;28;20143;-54
2022/01/29 06:10:54;;;;;;;38.13;25.75;;;7.80;99.90;;;;;;5032246;28;20048;-54
2022/01/29 06:13:20;;;;;;;35.60;24.92;;;7.90;99.90;;;;;;5048354;28;20037;-55
2022/01/29 06:15:47;;;;;;;33.75;24.42;;;7.90;99.90;;;;;;5049169;28;20037;-54
2022/01/29 06:18:17;;;;;;;31.35;23.10;;;7.90;99.90;;;;;;5049178;28;20048;-53
2022/01/29 06:20:45;;;;;;;34.90;23.33;;;8.00;99.90;;;;;;5049181;28;20367;-55
2022/01/29 06:23:12;;;;;;;33.13;23.10;;;8.00;99.90;;;;;;5049956;28;20490;-53
2022/01/29 06:25:38;;;;;;;33.90;23.20;;;8.00;99.90;;;;;;5046448;28;20538;-51
2022/01/29 06:28:03;;;;;;;33.78;21.50;;;8.00;99.90;;;;;;5030794;28;20182;-54
2022/01/29 06:30:29;;;;;;;33.45;22.40;;;8.00;99.90;;;;;;5048902;28;20108;-55
2022/01/29 06:32:55;;;;;;;35.50;22.30;;;8.10;99.90;;;;;;5048210;28;20052;-55
2022/01/29 06:35:21;;;;;;;30.15;21.35;;;8.10;99.90;;;;;;5049755;28;20045;-55
2022/01/29 06:37:46;;;;;;;31.67;21.58;;;8.10;99.90;;;;;;5047511;28;20041;-54
2022/01/29 06:40:12;;;;;;;31.90;21.58;;;8.10;99.90;;;;;;5032328;28;20049;-55
2022/01/29 06:42:38;;;;;;;34.28;22.13;;;8.20;99.90;;;;;;5051247;28;20063;-54
2022/01/29 06:45:05;;;;;;;30.02;21.17;;;8.10;99.90;;;;;;5050021;28;20043;-54
2022/01/29 06:47:31;;;;;;;33.22;20.85;;;8.20;99.90;;;;;;5051799;28;20428;-54
2022/01/29 06:49:56;;;;;;;32.35;20.40;;;8.20;99.90;;;;;;5047813;28;20048;-54
2022/01/29 06:52:22;;;;;;;30.13;21.00;;;8.20;99.90;;;;;;5047377;28;20085;-54
2022/01/29 06:54:48;;;;;;;35.58;20.95;;;8.20;99.90;;;;;;5019957;28;20053;-54
2022/01/29 06:57:13;;;;;;;28.10;19.90;;;8.20;99.90;;;;;;5050079;28;20386;-54
2022/01/29 06:59:39;;;;;;;28.40;19.58;;;8.20;99.90;;;;;;5049081;28;20048;-55
2022/01/29 07:02:05;;;;;;;29.55;19.60;;;8.20;99.90;;;;;;5042869;28;20041;-55
2022/01/29 07:04:30;;;;;;;29.85;19.40;;;8.20;99.90;;;;;;5047869;28;20116;-55
2022/01/29 07:06:56;;;;;;;26.70;18.90;;;8.20;99.90;;;;;;5049699;28;20048;-55
2022/01/29 07:09:21;;;;;;;27.70;19.05;;;8.20;99.90;;;;;;5026693;28;20041;-55
2022/01/29 07:11:54;;;;;;;28.52;18.65;;;8.30;99.90;;;;;;5045619;28;20558;-55
2022/01/29 07:14:19;;;;;;;26.13;18.17;;;8.30;99.90;;;;;;5048388;28;20068;-55
2022/01/29 07:16:45;;;;;;;27.98;17.63;;;8.30;99.90;;;;;;5047367;28;20099;-55
2022/01/29 07:19:11;;;;;;;27.42;18.27;;;8.30;99.90;;;;;;5044597;28;20123;-53
2022/01/29 07:21:39;;;;;;;21.95;16.98;;;8.30;99.90;;;;;;5048372;28;20043;-55
2022/01/29 07:24:05;;;;;;;29.40;17.65;;;8.30;99.90;;;;;;5046536;28;20049;-55
2022/01/29 07:26:31;;;;;;;24.20;16.83;;;8.30;99.90;;;;;;5046295;28;20124;-54
2022/01/29 07:28:57;;;;;;;24.88;17.35;;;8.40;99.90;;;;;;5046118;28;20124;-55
2022/01/29 07:31:23;;;;;;;23.23;16.30;;;8.40;99.90;;;;;;5047997;28;20047;-54
2022/01/29 07:33:49;;;;;;;24.95;16.58;;;8.40;99.90;;;;;;5044678;28;20732;-55
2022/01/29 07:36:15;;;;;;;25.23;16.52;;;8.40;99.90;;;;;;5028188;28;20440;-55
2022/01/29 07:38:40;;;;;;;25.55;16.77;;;8.40;99.90;;;;;;5049015;28;20397;-53
2022/01/29 07:41:06;;;;;;;24.35;17.10;;;8.40;99.90;;;;;;5047893;28;20040;-54
2022/01/29 07:43:31;;;;;;;25.40;17.52;;;8.40;99.90;;;;;;5043618;28;20141;-54
2022/01/29 07:45:57;;;;;;;24.00;16.90;;;8.40;99.90;;;;;;5042896;28;20171;-53
2022/01/29 07:48:23;;;;;;;24.85;17.33;;;8.40;99.90;;;;;;5047503;28;20045;-52
2022/01/29 07:50:49;;;;;;;26.25;17.52;;;8.40;99.90;;;;;;5042355;28;20113;-53
2022/01/29 07:53:15;;;;;;;22.95;17.45;;;8.50;99.90;;;;;;5047439;28;20128;-54
2022/01/29 07:55:41;;;;;;;25.00;17.83;;;8.50;99.90;;;;;;5047075;28;20044;-54
2022/01/29 07:58:06;;;;;;;26.08;17.35;;;8.40;99.90;;;;;;5044515;28;20052;-54
2022/01/29 08:00:32;;;;;;;26.10;17.90;;;8.50;99.90;;;;;;5043540;28;20064;-54
2022/01/29 08:02:57;;;;;;;22.13;17.73;;;8.50;99.90;;;;;;5051618;28;20056;-55
2022/01/29 08:05:23;;;;;;;24.48;17.45;;;8.50;99.90;;;;;;5047000;28;20464;-54
2022/01/29 08:07:48;;;;;;;24.73;17.55;;;8.50;99.90;;;;;;5048132;28;20380;-54
2022/01/29 08:10:14;;;;;;;27.02;16.80;;;;;;;;;;5028219;28;20098;-54
2022/01/29 08:12:40;;;;;;;25.20;16.90;;;;;;;;;;5047828;28;20107;-53
2022/01/29 08:15:07;;;;;;;24.83;17.40;;;;;;;;;;5045352;28;20052;-55
2022/01/29 08:17:33;;;;;;;25.60;18.13;;;;;;;;;;5047451;28;20045;-54
2022/01/29 08:19:59;;;;;;;25.20;16.95;;;;;;;;;;5047666;28;20091;-55
2022/01/29 08:22:25;;;;;;;26.27;16.55;;;;;;;;;;5048807;28;20044;-54
2022/01/29 08:24:52;;;;;;;26.42;16.88;;;;;;;;;;5045481;28;20465;-54
2022/01/29 08:27:18;;;;;;;23.33;17.05;;;;;;;;;;5045755;28;20044;-55
2022/01/29 08:29:44;;;;;;;21.83;16.05;;;8.60;99.90;;;;;;5047328;28;20447;-54
2022/01/29 08:32:10;;;;;;;24.25;15.48;;;8.60;99.90;;;;;;5042612;28;20056;-54
2022/01/29 08:34:35;;;;;;;18.85;14.95;;;8.60;99.90;;;;;;5044836;28;20033;-52
2022/01/29 08:37:03;;;;;;;22.60;15.13;;;8.60;99.90;;;;;;5044036;28;20534;-52
2022/01/29 08:39:29;;;;;;;21.85;15.20;;;8.70;99.90;;;;;;5028578;28;20079;-53
2022/01/29 08:41:55;;;;;;;21.25;14.43;;;8.70;99.90;;;;;;5046977;28;20072;-53
2022/01/29 08:44:21;;;;;;;20.63;15.13;;;8.80;99.90;;;;;;5046337;28;20087;-54
2022/01/29 08:46:47;;;;;;;16.55;13.68;;;8.80;99.90;;;;;;5026662;28;20506;-53
2022/01/29 08:49:12;;;;;;;19.33;13.63;;;8.80;99.90;;;;;;5047195;28;20048;-54
2022/01/29 08:51:38;;;;;;;17.17;13.70;;;8.80;99.90;;;;;;5046788;28;20423;-53
2022/01/29 08:54:04;;;;;;;18.83;13.38;;;8.90;99.90;;;;;;5047272;28;20122;-52
2022/01/29 08:56:30;;;;;;;20.70;13.80;;;8.90;99.90;;;;;;5047099;28;20052;-53
2022/01/29 08:58:56;;;;;;;18.08;12.55;;;8.90;99.90;;;;;;5038358;28;20049;-54
2022/01/29 09:01:22;;;;;;;19.75;13.18;;;8.90;99.90;;;;;;5034549;28;20490;-52
2022/01/29 09:03:47;;;;;;;16.48;12.77;;;8.90;99.90;;;;;;5037299;28;20029;-54
2022/01/29 09:06:13;;;;;;;16.58;13.07;;;9.00;99.90;;;;;;5035271;28;20049;-53
2022/01/29 09:08:40;;;;;;;17.05;12.55;;;9.00;99.90;;;;;;5035594;28;20041;-54
2022/01/29 09:11:06;;;;;;;17.98;13.63;;;9.00;99.90;;;;;;5036169;28;20045;-53
2022/01/29 09:13:32;;;;;;;16.65;12.75;;;9.00;99.90;;;;;;5040512;28;20091;-54
2022/01/29 09:15:58;;;;;;;15.57;12.68;;;9.10;99.90;;;;;;5039508;28;20037;-52
2022/01/29 09:18:24;;;;;;;16.33;13.20;;;9.00;99.90;;;;;;5037193;28;20045;-53
2022/01/29 09:20:49;;;;;;;17.25;12.05;;;9.10;99.90;;;;;;5045023;28;20052;-53
2022/01/29 09:23:15;;;;;;;18.55;13.82;;;9.10;99.90;;;;;;5045149;28;20037;-53
2022/01/29 09:25:41;;;;;;;16.60;12.55;;;9.10;99.90;;;;;;5042533;28;20053;-53
2022/01/29 09:28:08;;;;;;;17.45;12.07;;;9.10;99.90;;;;;;5025014;28;20529;-53
2022/01/29 09:30:34;;;;;;;14.85;12.55;;;9.10;99.90;;;;;;5038620;28;20041;-52
2022/01/29 09:33:00;;;;;;;15.57;12.00;;;9.10;99.90;;;;;;5039091;28;20045;-52
2022/01/29 09:35:27;;;;;;;15.10;11.65;;;9.10;99.90;;;;;;5050547;28;20102;-54
2022/01/29 09:37:53;;;;;;;17.15;12.00;;;9.20;99.90;;;;;;5052409;28;20135;-53
2022/01/29 09:40:19;;;;;;;15.20;11.63;;;9.20;99.90;;;;;;5049673;28;20092;-53
2022/01/29 09:42:47;;;;;;;14.45;11.50;;;9.20;99.90;;;;;;5045003;28;20056;-53
2022/01/29 09:45:14;;;;;;;16.95;11.13;;;9.20;99.90;;;;;;5045575;28;20100;-53
2022/01/29 09:47:42;;;;;;;13.27;10.40;;;9.20;99.90;;;;;;5041035;28;20040;-51
2022/01/29 09:50:09;;;;;;;13.93;10.82;;;9.20;99.90;;;;;;5043021;28;20136;-54
2022/01/29 09:52:35;;;;;;;11.93;9.55;;;9.30;99.90;;;;;;5044882;28;20515;-54
2022/01/29 09:55:00;;;;;;;13.52;9.52;;;9.30;99.90;;;;;;5042558;28;20140;-53
2022/01/29 09:57:27;;;;;;;15.23;10.07;;;9.30;99.90;;;;;;5044716;28;20506;-54
2022/01/29 09:59:52;;;;;;;13.75;9.57;;;9.40;99.90;;;;;;5044087;28;20463;-49
2022/01/29 10:02:19;;;;;;;12.65;8.82;;;9.40;99.90;;;;;;5042718;28;20037;-54
2022/01/29 10:04:55;;;;;;;10.70;8.98;;;9.50;99.90;;;;;;5049725;28;20429;-53
2022/01/29 10:07:27;;;;;;;18.25;9.88;;;9.50;99.90;;;;;;5050103;28;20048;-54
2022/01/29 10:09:53;;;;;;;11.50;8.10;;;9.60;99.90;;;;;;5048606;28;20416;-52
2022/01/29 10:12:20;;;;;;;10.00;8.48;;;9.60;99.90;;;;;;5049635;28;20040;-54
2022/01/29 10:14:52;;;;;;;12.32;8.05;;;9.70;99.90;;;;;;5049955;28;20050;-54
2022/01/29 10:17:47;;;;;;;9.30;7.47;;;9.70;99.90;;;;;;5048807;28;20048;-54
2022/01/29 10:20:17;;;;;;;11.77;7.47;;;9.70;99.90;;;;;;5048554;28;20045;-52
2022/01/29 10:22:49;;;;;;;11.18;7.47;;;9.80;99.90;;;;;;5050972;28;20044;-52
2022/01/29 10:25:20;;;;;;;7.55;6.18;;;9.80;99.90;;;;;;5049392;28;20076;-54
2022/01/29 10:28:06;;;;;;;12.80;6.82;;;9.80;99.90;;;;;;5049631;28;20391;-54
2022/01/29 10:30:32;;;;;;;11.70;6.60;;;9.80;99.90;;;;;;5050814;28;20037;-53
2022/01/29 10:33:17;;;;;;;9.00;6.40;;;9.80;99.90;;;;;;5049157;28;20135;-54
2022/01/29 10:35:44;;;;;;;12.07;6.53;;;9.80;99.90;;;;;;5047892;28;20132;-53
2022/01/29 10:38:10;;;;;;;12.20;6.28;;;9.80;99.90;;;;;;5050451;28;20467;-54
2022/01/29 10:40:35;;;;;;;10.50;6.18;;;9.80;99.90;;;;;;5054616;28;20124;-53
2022/01/29 10:43:04;;;;;;;10.45;5.85;;;9.80;99.90;;;;;;5062132;28;20052;-54
2022/01/29 10:45:35;;;;;;;10.43;5.72;;;9.80;99.90;;;;;;5061314;28;20037;-53
2022/01/29 10:48:03;;;;;;;10.90;6.13;;;9.90;99.90;;;;;;5058506;28;20044;-54
2022/01/29 10:50:29;;;;;;;13.93;6.00;;;9.80;99.90;;;;;;5057849;28;20109;-53
2022/01/29 10:52:58;;;;;;;9.93;5.38;;;9.80;99.90;;;;;;5062498;28;20083;-53
2022/01/29 10:55:24;;;;;;;9.27;5.47;;;9.90;99.90;;;;;;5063724;28;20126;-53
2022/01/29 10:57:49;;;;;;;8.65;4.78;;;9.90;99.90;;;;;;5063746;28;20033;-52
2022/01/29 11:00:15;;;;;;;9.27;4.93;;;10.00;99.90;;;;;;5055954;28;20075;-52
2022/01/29 11:02:42;;;;;;;10.30;5.30;;;10.00;99.90;;;;;;5056683;28;20053;-51
2022/01/29 11:05:08;;;;;;;7.30;4.57;;;10.10;99.90;;;;;;5049502;28;20049;-49
2022/01/29 11:07:34;;;;;;;8.45;4.38;;;10.10;99.90;;;;;;5055644;28;20093;-52
2022/01/29 11:10:08;;;;;;;9.93;4.57;;;10.10;99.90;;;;;;5060731;28;20371;-51
2022/01/29 11:12:36;;;;;;;9.18;4.28;;;10.10;99.90;;;;;;5040228;28;20041;-52
2022/01/29 11:15:02;;;;;;;;;;;10.20;99.90;;;;;;5060793;28;20045;-52
2022/01/29 11:17:31;;;;;;;8.43;4.07;;;10.20;99.90;;;;;;5045456;28;20006;-50
2022/01/29 11:19:59;;;;;;;7.38;3.80;;;10.20;99.90;;;;;;5056905;28;20059;-52
2022/01/29 11:22:38;;;;;;;10.60;4.43;;;10.20;99.90;;;;;;5061672;28;20056;-53
2022/01/29 11:25:15;;;;;;;8.55;3.95;;;10.40;99.90;;;;;;5059479;28;20051;-52
2022/01/29 11:27:41;;;;;;;10.43;4.32;;;10.50;99.90;;;;;;5060034;28;20579;-49
2022/01/29 11:30:09;;;;;;;11.98;4.20;;;10.50;99.90;;;;;;5063137;28;20037;-52
2022/01/29 11:32:42;;;;;;;6.53;3.47;;;10.50;99.90;;;;;;5063389;28;20486;-53
2022/01/29 11:35:31;;;;;;;9.40;3.60;;;10.60;99.90;;;;;;5057412;28;20045;-53
2022/01/29 11:38:02;;;;;;;6.30;3.00;;;10.50;99.90;;;;;;5064807;28;20140;-51
2022/01/29 11:41:02;;;;;;;7.20;3.10;;;10.50;99.90;;;;;;5063585;28;20051;-52
2022/01/29 11:43:35;;;;;;;9.02;2.92;;;10.50;99.90;;;;;;5016723;28;20072;-52
2022/01/29 11:46:05;;;;;;;6.95;2.70;;;10.40;99.90;;;;;;5062683;28;20099;-53
2022/01/29 11:48:36;;;;;;;6.65;2.80;;;10.40;99.90;;;;;;5058661;28;20096;-52
2022/01/29 11:51:10;;;;;;;5.30;2.60;;;10.40;99.90;;;;;;5055522;28;20111;-49
2022/01/29 11:53:44;;;;;;;6.68;2.83;;;10.50;99.90;;;;;;5061073;28;20045;-49
2022/01/29 11:56:34;;;;;;;5.13;2.38;;;10.50;99.90;;;;;;5039205;28;20056;-53
2022/01/29 11:59:19;;;;;;;5.82;2.33;;;10.50;99.90;;;;;;5053352;28;20053;-50
2022/01/29 12:01:52;;;;;;;7.43;2.60;;;10.50;99.90;;;;;;5047744;28;20417;-51
2022/01/29 12:04:21;;;;;;;8.80;2.53;;;10.50;99.90;;;;;;5034674;28;20045;-53
2022/01/29 12:07:09;;;;;;;10.18;2.65;;;10.60;99.90;;;;;;5057394;28;20036;-52
2022/01/29 12:10:07;;;;;;;6.03;2.60;;;10.60;99.90;;;;;;5054222;28;20370;-52
2022/01/29 12:12:35;;;;;;;6.95;2.28;;;10.70;99.90;;;;;;5033130;28;20076;-49
2022/01/29 12:15:10;;;;;;;7.55;2.78;;;10.80;99.90;;;;;;5047377;28;20045;-52
2022/01/29 12:17:45;;;;;;;7.60;1.83;;;10.80;99.90;;;;;;5057735;28;20037;-50
2022/01/29 12:20:13;;;;;;;8.50;2.50;;;10.90;99.90;;;;;;5049606;28;20056;-51
2022/01/29 12:22:41;;;;;;;6.35;1.98;;;10.90;99.90;;;;;;5051568;28;20449;-52
2022/01/29 12:25:12;;;;;;;8.07;2.10;;;10.80;99.90;;;;;;5055063;28;20075;-52
2022/01/29 12:28:03;;;;;;;5.60;1.92;;;10.80;99.90;;;;;;5037288;28;20088;-52
2022/01/29 12:30:39;;;;;;;5.35;1.85;;;10.80;99.90;;;;;;5032372;28;20108;-50
2022/01/29 12:33:07;;;;;;;6.38;2.08;;;10.80;99.90;;;;;;5056239;28;20048;-49
2022/01/29 12:35:45;;;;;;;7.45;1.88;;;10.80;99.90;;;;;;5051682;28;20071;-52
2022/01/29 12:38:17;;;;;;;7.28;1.55;;;10.80;99.90;;;;;;5053685;28;20060;-51
2022/01/29 12:41:03;;;;;;;5.10;1.77;;;10.80;99.90;;;;;;5054083;28;20585;-50
2022/01/29 12:43:36;;;;;;;7.85;1.95;;;10.80;99.90;;;;;;5054412;28;20048;-52
2022/01/29 12:46:10;;;;;;;6.40;1.70;;;10.80;99.90;;;;;;5053739;28;20363;-51
2022/01/29 12:48:38;;;;;;;7.57;2.05;;;10.80;99.90;;;;;;5053925;28;20079;-52
2022/01/29 12:51:09;;;;;;;4.47;1.80;;;10.90;99.90;;;;;;5054080;28;20141;-52
2022/01/29 12:53:35;;;;;;;4.18;1.60;;;10.90;99.90;;;;;;5041397;28;20063;-48
2022/01/29 12:56:05;;;;;;;7.05;2.30;;;10.90;99.90;;;;;;5060103;28;20037;-53
2022/01/29 12:58:37;;;;;;;8.45;1.88;;;10.90;99.90;;;;;;5060445;28;20037;-52